createdAt,value
2022-08-10T00:03:45.480Z,2.2
2022-08-10T00:10:05.516Z,2.2
2022-08-10T00:16:28.487Z,0.8
2022-08-10T00:22:48.953Z,0.8
2022-08-10T00:29:11.964Z,2
2022-08-10T00:35:31.559Z,2
2022-08-10T00:42:01.620Z,1.4
2022-08-10T00:48:14.472Z,1.4
2022-08-10T00:54:37.491Z,2
2022-08-10T01:00:57.571Z,2
2022-08-10T01:07:20.510Z,1.9
2022-08-10T01:13:40.561Z,1.9
2022-08-10T01:20:03.544Z,0.7
2022-08-10T01:26:30.871Z,0.7
2022-08-10T01:32:46.537Z,1.8
2022-08-10T01:39:06.520Z,1.8
2022-08-10T01:45:29.522Z,1.3
2022-08-10T01:51:49.508Z,1.3
2022-08-10T01:58:12.559Z,1.1
2022-08-10T02:04:32.540Z,1.1
2022-08-10T02:10:55.527Z,2.3
2022-08-10T02:17:57.177Z,2.3
2022-08-10T02:23:38.517Z,1.5
2022-08-10T02:29:58.520Z,1.5
2022-08-10T02:36:21.522Z,2.3
2022-08-10T02:45:17.239Z,2.3
2022-08-10T02:49:04.522Z,3.5
2022-08-10T02:55:27.054Z,3.5
2022-08-10T03:01:47.489Z,3.5
2022-08-10T03:08:07.568Z,3.5
2022-08-10T03:14:30.508Z,2.4
2022-08-10T03:20:50.563Z,2.4
2022-08-10T03:27:13.503Z,2.6
2022-08-10T03:33:33.568Z,2.6
2022-08-10T03:58:21.964Z,5
2022-08-10T04:04:41.479Z,5
2022-08-10T04:11:04.554Z,3.1
2022-08-10T04:17:56.536Z,3.1
2022-08-10T04:23:51.211Z,2.5
2022-08-10T04:30:07.550Z,2.5
2022-08-10T04:36:30.548Z,3.1
2022-08-10T04:42:50.581Z,3.1
2022-08-10T04:49:40.343Z,2.5
2022-08-10T04:55:33.607Z,2.5
2022-08-10T05:02:13.583Z,2
2022-08-10T05:08:16.540Z,2
2022-08-10T05:14:39.501Z,3.3
2022-08-10T05:20:59.484Z,3.3
2022-08-10T05:27:22.593Z,3.7
2022-08-10T05:33:42.495Z,3.7
2022-08-10T05:40:05.535Z,2
2022-08-10T05:46:25.511Z,2
2022-08-10T05:52:48.506Z,2.4
2022-08-10T05:59:08.519Z,2.4
2022-08-10T06:05:31.518Z,1.7
2022-08-10T06:12:16.824Z,1.7
2022-08-10T06:18:14.497Z,2.9
2022-08-10T06:24:34.491Z,2.9
2022-08-10T06:30:57.533Z,1.9
2022-08-10T06:37:17.480Z,1.9
2022-08-10T06:43:40.528Z,2.7
2022-08-10T06:50:01.597Z,2.7
2022-08-10T06:56:36.453Z,2.5
2022-08-10T07:02:43.497Z,2.5
2022-08-10T07:09:06.837Z,0.7
2022-08-10T07:15:58.253Z,0.7
2022-08-10T07:21:49.656Z,1.9
2022-08-10T07:28:09.527Z,1.9
2022-08-10T07:34:32.494Z,1.7
2022-08-10T07:40:52.496Z,1.7
2022-08-10T07:47:15.549Z,0.7
2022-08-10T07:53:35.507Z,0.7
2022-08-10T07:59:58.523Z,1.5
2022-08-10T08:06:18.565Z,1.5
2022-08-10T08:12:41.635Z,1.5
2022-08-10T08:25:24.486Z,4.7
2022-08-10T08:31:54.400Z,4.7
2022-08-10T08:38:29.051Z,1.4
2022-08-10T08:44:30.523Z,1.4
2022-08-10T08:50:54.064Z,1
2022-08-10T08:57:10.501Z,1
2022-08-10T09:03:33.526Z,2
2022-08-10T09:09:53.504Z,2
2022-08-10T09:16:16.506Z,2.1
2022-08-10T09:36:18.232Z,1.4
2022-08-10T09:40:06.225Z,2.3
2022-08-10T09:45:59.480Z,2.3
2022-08-10T09:52:22.525Z,2.3
2022-08-10T09:58:42.482Z,2.3
2022-08-10T10:05:05.506Z,0.9
2022-08-10T10:11:25.514Z,0.9
2022-08-10T10:17:48.518Z,0.8
2022-08-10T10:24:20.075Z,0.8
2022-08-10T10:30:31.474Z,1.5
2022-08-10T10:36:51.824Z,1.5
2022-08-10T10:43:14.677Z,2.5
2022-08-10T10:49:34.618Z,2.5
2022-08-10T10:56:14.114Z,2
2022-08-10T11:02:17.486Z,2
2022-08-10T11:08:40.525Z,1.2
2022-08-10T11:15:00.488Z,1.2
2022-08-10T11:21:23.471Z,2
2022-08-10T11:27:43.535Z,2
2022-08-10T11:34:46.697Z,1.5
2022-08-10T11:40:26.699Z,1.5
2022-08-10T11:46:49.998Z,1.4
2022-08-10T11:53:09.486Z,1.4
2022-08-10T11:59:32.501Z,1
2022-08-10T12:05:54.843Z,1
2022-08-10T12:12:15.577Z,1.5
2022-08-10T12:18:35.523Z,1.5
2022-08-10T12:24:58.543Z,2.2
2022-08-10T12:31:18.531Z,2.2
2022-08-10T12:37:41.558Z,1.3
2022-08-10T12:44:04.180Z,1.3
2022-08-10T12:50:30.112Z,1.4
2022-08-10T12:56:44.561Z,1.4
2022-08-10T13:03:07.631Z,1
2022-08-10T13:09:27.547Z,1
2022-08-10T13:15:51.316Z,1
2022-08-10T13:22:10.488Z,1
2022-08-10T13:28:35.130Z,1.3
2022-08-10T13:34:53.482Z,1.3
2022-08-10T13:41:16.498Z,1.7
2022-08-10T13:47:48.268Z,1.7
2022-08-10T13:53:59.472Z,1.6
2022-08-10T14:00:33.592Z,1.6
2022-08-10T14:06:42.503Z,1
2022-08-10T14:13:02.500Z,1
2022-08-10T14:19:25.529Z,1.3
2022-08-10T14:25:45.483Z,1.3
2022-08-10T14:32:08.526Z,0.7
2022-08-10T14:38:28.483Z,0.7
2022-08-10T14:44:51.695Z,1.6
2022-08-10T14:51:11.763Z,1.6
2022-08-10T14:58:17.483Z,1.6
2022-08-10T15:14:42.146Z,1.6
2022-08-10T15:20:40.021Z,2.4
2022-08-10T15:26:59.491Z,2.4
2022-08-10T15:33:57.280Z,2.4
2022-08-10T15:40:22.948Z,2.4
2022-08-10T15:46:05.502Z,1.2
2022-08-10T15:52:38.938Z,1.2
2022-08-10T15:58:48.481Z,1.7
2022-08-10T16:05:08.531Z,1.7
2022-08-10T16:11:37.538Z,1.3
2022-08-10T16:17:54.035Z,1.3
2022-08-10T16:24:16.109Z,0.6
2022-08-10T16:30:34.487Z,0.6
2022-08-10T16:36:57.540Z,1.9
2022-08-10T16:43:23.953Z,1.9
2022-08-10T16:49:40.532Z,0.7
2022-08-10T16:56:00.491Z,0.7
2022-08-10T17:02:23.492Z,1
2022-08-10T17:08:47.921Z,1
2022-08-10T17:15:09.916Z,0.8
2022-08-10T17:21:26.521Z,0.8
2022-08-10T17:28:03.611Z,1
2022-08-10T17:34:09.654Z,1
2022-08-10T17:40:33.569Z,1.2
2022-08-10T17:46:53.594Z,1.2
2022-08-10T17:53:16.725Z,0.6
2022-08-10T17:59:36.785Z,0.6
2022-08-10T18:05:59.517Z,1.2
2022-08-10T18:12:21.559Z,1.2
2022-08-10T18:18:42.482Z,1.5
2022-08-10T18:25:02.537Z,1.5
2022-08-10T18:31:27.127Z,1.2
2022-08-10T18:37:47.491Z,1.2
2022-08-10T18:44:12.617Z,1.2
2022-08-10T18:50:30.487Z,1.2
2022-08-10T18:56:53.507Z,1.5
2022-08-10T19:03:13.487Z,1.5
2022-08-10T19:09:46.968Z,1.6
2022-08-10T19:15:56.496Z,1.6
2022-08-10T19:22:19.463Z,1.1
2022-08-10T19:28:39.501Z,1.1
2022-08-10T19:35:02.561Z,2.3
2022-08-10T19:41:24.412Z,2.3
2022-08-10T19:47:45.461Z,2.3
2022-08-10T19:54:05.476Z,2.3
2022-08-10T20:00:29.384Z,1.2
2022-08-10T20:06:48.456Z,1.2
2022-08-10T20:13:11.518Z,1.2
2022-08-10T20:19:52.231Z,1.2
2022-08-10T20:25:54.471Z,1.2
2022-08-10T20:32:14.505Z,1.2
2022-08-10T20:49:18.079Z,1.4
2022-08-10T20:55:46.985Z,1.4
2022-08-10T21:02:01.744Z,3
2022-08-10T21:08:20.788Z,3
2022-08-10T21:14:43.468Z,3
2022-08-10T21:21:03.454Z,3
2022-08-10T21:27:36.677Z,1.4
2022-08-10T21:33:48.966Z,1.4
2022-08-10T21:40:32.483Z,0.8
2022-08-10T21:46:29.477Z,0.8
2022-08-10T21:52:53.566Z,1.5
2022-08-10T21:59:12.488Z,1.5
2022-08-10T22:22:17.056Z,3.5
2022-08-10T22:28:29.453Z,3.5
2022-08-10T22:34:52.495Z,3.5
2022-08-10T22:41:12.470Z,3.5
2022-08-10T22:47:35.471Z,1.9
2022-08-10T22:53:55.521Z,1.9
2022-08-10T23:00:18.454Z,2
2022-08-10T23:06:38.491Z,2
2022-08-10T23:13:01.491Z,1.2
2022-08-10T23:19:21.458Z,1.2
2022-08-10T23:25:56.887Z,0.7
2022-08-10T23:32:07.147Z,0.7
2022-08-10T23:38:27.548Z,1
2022-08-10T23:44:47.457Z,1
2022-08-10T23:51:16.018Z,1.5
2022-08-10T23:57:30.548Z,1.5
